sensor_id;sensor_type;location;lat;lon;timestamp;P1;P2;P0
56495;PMS5003;42804;55.762;38.084;2023-08-06T00:00:29;64.40;52.20;36.60
56495;PMS5003;42804;55.762;38.084;2023-08-06T00:02:57;63.40;52.00;37.00
56495;PMS5003;42804;55.762;38.084;2023-08-06T00:05:25;63.60;51.00;36.00
56495;PMS5003;42804;55.762;38.084;2023-08-06T00:07:55;62.60;51.40;34.80
56495;PMS5003;42804;55.762;38.084;2023-08-06T00:10:23;63.80;51.40;35.00
56495;PMS5003;42804;55.762;38.084;2023-08-06T00:12:51;66.00;53.20;36.20
56495;PMS5003;42804;55.762;38.084;2023-08-06T00:15:20;66.80;53.00;36.40
56495;PMS5003;42804;55.762;38.084;2023-08-06T00:17:48;67.60;54.00;37.40
56495;PMS5003;42804;55.762;38.084;2023-08-06T00:20:16;61.80;50.60;35.40
56495;PMS5003;42804;55.762;38.084;2023-08-06T00:22:44;63.80;51.20;36.00
56495;PMS5003;42804;55.762;38.084;2023-08-06T00:25:14;63.00;50.80;35.40
56495;PMS5003;42804;55.762;38.084;2023-08-06T00:27:42;65.60;53.00;36.20
56495;PMS5003;42804;55.762;38.084;2023-08-06T00:30:10;69.00;54.80;38.20
56495;PMS5003;42804;55.762;38.084;2023-08-06T00:32:38;65.00;53.20;36.60
56495;PMS5003;42804;55.762;38.084;2023-08-06T00:35:07;62.00;50.20;34.00
56495;PMS5003;42804;55.762;38.084;2023-08-06T00:37:35;63.80;50.20;35.00
56495;PMS5003;42804;55.762;38.084;2023-08-06T00:40:04;57.00;48.00;34.00
56495;PMS5003;42804;55.762;38.084;2023-08-06T00:42:34;62.00;50.00;35.00
56495;PMS5003;42804;55.762;38.084;2023-08-06T00:45:03;59.20;49.40;34.80
56495;PMS5003;42804;55.762;38.084;2023-08-06T00:47:31;57.20;47.00;33.00
56495;PMS5003;42804;55.762;38.084;2023-08-06T00:50:00;57.60;47.20;32.60
56495;PMS5003;42804;55.762;38.084;2023-08-06T00:52:29;57.80;47.80;34.00
56495;PMS5003;42804;55.762;38.084;2023-08-06T00:54:58;58.20;47.80;33.00
56495;PMS5003;42804;55.762;38.084;2023-08-06T00:57:27;52.25;44.00;30.00
56495;PMS5003;42804;55.762;38.084;2023-08-06T00:59:57;60.20;48.40;32.20
56495;PMS5003;42804;55.762;38.084;2023-08-06T01:02:26;56.00;46.80;31.80
56495;PMS5003;42804;55.762;38.084;2023-08-06T01:04:54;61.20;49.60;33.20
56495;PMS5003;42804;55.762;38.084;2023-08-06T01:07:27;54.60;46.40;32.40
56495;PMS5003;42804;55.762;38.084;2023-08-06T01:10:10;56.80;46.80;32.80
56495;PMS5003;42804;55.762;38.084;2023-08-06T01:12:45;59.00;48.00;33.00
56495;PMS5003;42804;55.762;38.084;2023-08-06T01:15:16;56.00;46.60;32.80
56495;PMS5003;42804;55.762;38.084;2023-08-06T01:17:46;65.40;53.00;36.20
56495;PMS5003;42804;55.762;38.084;2023-08-06T01:20:15;63.80;51.40;35.40
56495;PMS5003;42804;55.762;38.084;2023-08-06T01:22:45;68.20;53.40;38.20
56495;PMS5003;42804;55.762;38.084;2023-08-06T01:25:13;64.00;52.00;35.60
56495;PMS5003;42804;55.762;38.084;2023-08-06T01:27:46;65.00;52.80;36.00
56495;PMS5003;42804;55.762;38.084;2023-08-06T01:30:16;64.20;51.20;35.60
56495;PMS5003;42804;55.762;38.084;2023-08-06T01:32:46;59.00;49.00;35.00
56495;PMS5003;42804;55.762;38.084;2023-08-06T01:35:17;63.40;51.20;35.00
56495;PMS5003;42804;55.762;38.084;2023-08-06T01:37:48;62.60;51.20;34.80
56495;PMS5003;42804;55.762;38.084;2023-08-06T01:40:16;60.20;49.20;34.80
56495;PMS5003;42804;55.762;38.084;2023-08-06T01:42:45;62.80;49.80;35.00
56495;PMS5003;42804;55.762;38.084;2023-08-06T01:45:13;63.40;52.40;35.00
56495;PMS5003;42804;55.762;38.084;2023-08-06T01:47:41;61.40;50.40;36.00
56495;PMS5003;42804;55.762;38.084;2023-08-06T01:50:10;64.00;52.00;35.00
56495;PMS5003;42804;55.762;38.084;2023-08-06T01:52:38;63.40;51.40;36.00
56495;PMS5003;42804;55.762;38.084;2023-08-06T01:55:08;62.80;51.60;35.60
56495;PMS5003;42804;55.762;38.084;2023-08-06T01:57:37;62.40;48.40;34.20
56495;PMS5003;42804;55.762;38.084;2023-08-06T02:00:05;54.80;46.00;31.60
56495;PMS5003;42804;55.762;38.084;2023-08-06T02:02:38;59.00;49.00;34.00
56495;PMS5003;42804;55.762;38.084;2023-08-06T02:05:09;56.60;46.60;33.00
56495;PMS5003;42804;55.762;38.084;2023-08-06T02:07:39;52.40;44.60;31.00
56495;PMS5003;42804;55.762;38.084;2023-08-06T02:10:09;54.20;45.00;30.00
56495;PMS5003;42804;55.762;38.084;2023-08-06T02:12:37;55.20;45.60;30.20
56495;PMS5003;42804;55.762;38.084;2023-08-06T02:15:06;51.80;42.20;30.40
56495;PMS5003;42804;55.762;38.084;2023-08-06T02:17:34;51.20;42.40;30.00
56495;PMS5003;42804;55.762;38.084;2023-08-06T02:20:03;49.60;42.40;30.00
56495;PMS5003;42804;55.762;38.084;2023-08-06T02:22:31;50.00;42.20;30.20
56495;PMS5003;42804;55.762;38.084;2023-08-06T02:25:00;52.00;42.80;29.60
56495;PMS5003;42804;55.762;38.084;2023-08-06T02:27:30;48.20;41.40;29.00
56495;PMS5003;42804;55.762;38.084;2023-08-06T02:29:58;53.80;44.00;29.20
56495;PMS5003;42804;55.762;38.084;2023-08-06T02:32:27;47.80;41.00;29.00
56495;PMS5003;42804;55.762;38.084;2023-08-06T02:34:56;53.00;43.20;30.20
56495;PMS5003;42804;55.762;38.084;2023-08-06T02:37:24;43.20;37.60;27.80
56495;PMS5003;42804;55.762;38.084;2023-08-06T02:39:53;47.60;40.00;28.80
56495;PMS5003;42804;55.762;38.084;2023-08-06T02:42:21;48.20;40.60;29.00
56495;PMS5003;42804;55.762;38.084;2023-08-06T02:44:52;47.50;40.00;28.00
56495;PMS5003;42804;55.762;38.084;2023-08-06T02:47:21;46.00;39.25;28.00
56495;PMS5003;42804;55.762;38.084;2023-08-06T02:49:50;48.00;40.00;28.25
56495;PMS5003;42804;55.762;38.084;2023-08-06T02:52:19;46.00;39.25;26.75
56495;PMS5003;42804;55.762;38.084;2023-08-06T02:54:47;48.25;40.00;28.50
56495;PMS5003;42804;55.762;38.084;2023-08-06T02:57:16;45.25;38.25;28.00
56495;PMS5003;42804;55.762;38.084;2023-08-06T02:59:46;45.25;37.50;26.75
56495;PMS5003;42804;55.762;38.084;2023-08-06T03:02:19;43.75;36.50;26.75
56495;PMS5003;42804;55.762;38.084;2023-08-06T03:04:59;43.25;37.00;26.50
56495;PMS5003;42804;55.762;38.084;2023-08-06T03:07:33;40.75;35.25;26.50
56495;PMS5003;42804;55.762;38.084;2023-08-06T03:10:10;39.50;35.50;25.75
56495;PMS5003;42804;55.762;38.084;2023-08-06T03:12:39;40.75;36.00;26.50
56495;PMS5003;42804;55.762;38.084;2023-08-06T03:15:08;39.50;35.50;24.00
56495;PMS5003;42804;55.762;38.084;2023-08-06T03:17:38;43.25;36.75;26.75
56495;PMS5003;42804;55.762;38.084;2023-08-06T03:20:08;39.50;34.75;25.75
56495;PMS5003;42804;55.762;38.084;2023-08-06T03:22:37;41.75;36.00;25.75
56495;PMS5003;42804;55.762;38.084;2023-08-06T03:25:06;36.00;32.25;23.25
56495;PMS5003;42804;55.762;38.084;2023-08-06T03:27:35;39.75;35.25;24.75
56495;PMS5003;42804;55.762;38.084;2023-08-06T03:30:04;36.50;32.25;24.00
56495;PMS5003;42804;55.762;38.084;2023-08-06T03:32:33;38.75;33.00;23.75
56495;PMS5003;42804;55.762;38.084;2023-08-06T03:35:03;42.25;35.50;24.50
56495;PMS5003;42804;55.762;38.084;2023-08-06T03:37:32;39.00;34.75;24.50
56495;PMS5003;42804;55.762;38.084;2023-08-06T03:40:00;36.00;32.50;22.75
56495;PMS5003;42804;55.762;38.084;2023-08-06T03:42:31;33.50;31.75;21.50
56495;PMS5003;42804;55.762;38.084;2023-08-06T03:44:59;37.00;33.00;24.00
56495;PMS5003;42804;55.762;38.084;2023-08-06T03:47:28;34.75;32.00;23.00
56495;PMS5003;42804;55.762;38.084;2023-08-06T03:49:57;31.25;30.25;22.00
56495;PMS5003;42804;55.762;38.084;2023-08-06T03:52:27;35.50;32.00;23.00
56495;PMS5003;42804;55.762;38.084;2023-08-06T03:54:55;34.75;32.00;22.50
56495;PMS5003;42804;55.762;38.084;2023-08-06T03:57:23;29.50;28.75;21.00
56495;PMS5003;42804;55.762;38.084;2023-08-06T03:59:51;28.25;27.25;22.00
56495;PMS5003;42804;55.762;38.084;2023-08-06T04:02:25;31.00;29.25;21.50
56495;PMS5003;42804;55.762;38.084;2023-08-06T04:04:53;31.25;29.50;21.50
56495;PMS5003;42804;55.762;38.084;2023-08-06T04:07:22;29.50;28.00;19.75
56495;PMS5003;42804;55.762;38.084;2023-08-06T04:09:58;29.50;28.00;20.00
56495;PMS5003;42804;55.762;38.084;2023-08-06T04:12:27;26.00;25.75;19.00
56495;PMS5003;42804;55.762;38.084;2023-08-06T04:14:57;33.00;31.25;21.75
56495;PMS5003;42804;55.762;38.084;2023-08-06T04:17:25;26.75;26.50;20.00
56495;PMS5003;42804;55.762;38.084;2023-08-06T04:19:54;30.25;29.00;21.00
56495;PMS5003;42804;55.762;38.084;2023-08-06T04:22:25;30.25;28.75;20.00
56495;PMS5003;42804;55.762;38.084;2023-08-06T04:24:54;28.25;27.75;21.00
56495;PMS5003;42804;55.762;38.084;2023-08-06T04:27:23;28.50;27.25;19.50
56495;PMS5003;42804;55.762;38.084;2023-08-06T04:29:51;28.25;28.25;21.75
56495;PMS5003;42804;55.762;38.084;2023-08-06T04:32:20;27.75;25.50;19.50
56495;PMS5003;42804;55.762;38.084;2023-08-06T04:34:51;26.00;24.50;18.75
56495;PMS5003;42804;55.762;38.084;2023-08-06T04:37:20;25.25;24.25;18.75
56495;PMS5003;42804;55.762;38.084;2023-08-06T04:39:48;26.25;24.75;18.00
56495;PMS5003;42804;55.762;38.084;2023-08-06T04:42:19;21.50;21.50;17.00
56495;PMS5003;42804;55.762;38.084;2023-08-06T04:44:47;24.00;23.00;18.25
56495;PMS5003;42804;55.762;38.084;2023-08-06T04:47:16;22.25;21.25;17.25
56495;PMS5003;42804;55.762;38.084;2023-08-06T04:49:44;24.50;23.00;17.75
56495;PMS5003;42804;55.762;38.084;2023-08-06T04:52:12;24.50;23.00;17.25
56495;PMS5003;42804;55.762;38.084;2023-08-06T04:54:40;22.75;22.00;18.00
56495;PMS5003;42804;55.762;38.084;2023-08-06T04:57:09;24.25;23.75;17.50
56495;PMS5003;42804;55.762;38.084;2023-08-06T04:59:40;17.25;16.50;14.50
56495;PMS5003;42804;55.762;38.084;2023-08-06T05:02:08;26.75;24.00;19.00
56495;PMS5003;42804;55.762;38.084;2023-08-06T05:04:36;26.25;24.25;18.00
56495;PMS5003;42804;55.762;38.084;2023-08-06T05:07:05;25.50;24.00;19.25
56495;PMS5003;42804;55.762;38.084;2023-08-06T05:09:33;25.50;24.50;18.50
56495;PMS5003;42804;55.762;38.084;2023-08-06T05:12:01;22.75;22.50;17.50
56495;PMS5003;42804;55.762;38.084;2023-08-06T05:14:30;21.25;20.50;16.50
56495;PMS5003;42804;55.762;38.084;2023-08-06T05:16:59;21.50;21.25;17.50
56495;PMS5003;42804;55.762;38.084;2023-08-06T05:19:29;20.25;19.50;16.25
56495;PMS5003;42804;55.762;38.084;2023-08-06T05:21:57;21.25;20.75;16.50
56495;PMS5003;42804;55.762;38.084;2023-08-06T05:24:25;21.75;21.25;17.00
56495;PMS5003;42804;55.762;38.084;2023-08-06T05:26:53;19.25;17.75;14.00
56495;PMS5003;42804;55.762;38.084;2023-08-06T05:29:21;24.75;23.50;18.25
56495;PMS5003;42804;55.762;38.084;2023-08-06T05:31:50;20.25;20.00;15.25
56495;PMS5003;42804;55.762;38.084;2023-08-06T05:34:20;22.75;22.50;17.25
56495;PMS5003;42804;55.762;38.084;2023-08-06T05:36:48;22.00;21.75;16.75
56495;PMS5003;42804;55.762;38.084;2023-08-06T05:39:16;22.00;21.00;16.25
56495;PMS5003;42804;55.762;38.084;2023-08-06T05:41:45;22.75;22.00;17.50
56495;PMS5003;42804;55.762;38.084;2023-08-06T05:44:13;22.00;22.00;17.00
56495;PMS5003;42804;55.762;38.084;2023-08-06T05:46:41;23.00;22.25;17.75
56495;PMS5003;42804;55.762;38.084;2023-08-06T05:49:09;20.25;19.25;15.00
56495;PMS5003;42804;55.762;38.084;2023-08-06T05:51:38;21.50;21.50;17.50
56495;PMS5003;42804;55.762;38.084;2023-08-06T05:54:07;22.25;21.00;17.00
56495;PMS5003;42804;55.762;38.084;2023-08-06T05:56:35;21.00;21.00;16.50
56495;PMS5003;42804;55.762;38.084;2023-08-06T05:59:03;21.50;21.00;16.50
56495;PMS5003;42804;55.762;38.084;2023-08-06T06:01:32;18.75;18.50;14.00
56495;PMS5003;42804;55.762;38.084;2023-08-06T06:04:01;19.00;19.00;14.00
56495;PMS5003;42804;55.762;38.084;2023-08-06T06:06:29;21.50;20.75;16.25
56495;PMS5003;42804;55.762;38.084;2023-08-06T06:08:58;20.00;20.00;16.00
56495;PMS5003;42804;55.762;38.084;2023-08-06T06:11:27;21.33;20.33;16.00
56495;PMS5003;42804;55.762;38.084;2023-08-06T06:13:55;22.00;22.00;16.75
56495;PMS5003;42804;55.762;38.084;2023-08-06T06:16:23;17.25;16.75;12.25
56495;PMS5003;42804;55.762;38.084;2023-08-06T06:18:52;18.00;18.00;15.00
56495;PMS5003;42804;55.762;38.084;2023-08-06T06:21:21;17.50;17.50;15.00
56495;PMS5003;42804;55.762;38.084;2023-08-06T06:23:50;20.25;19.25;14.50
56495;PMS5003;42804;55.762;38.084;2023-08-06T06:26:20;20.50;20.25;16.50
56495;PMS5003;42804;55.762;38.084;2023-08-06T06:28:48;16.50;15.50;13.50
56495;PMS5003;42804;55.762;38.084;2023-08-06T06:31:17;18.50;18.25;15.00
56495;PMS5003;42804;55.762;38.084;2023-08-06T06:33:45;20.25;19.50;15.00
56495;PMS5003;42804;55.762;38.084;2023-08-06T06:36:13;19.00;19.00;16.00
56495;PMS5003;42804;55.762;38.084;2023-08-06T06:38:42;19.00;18.00;13.75
56495;PMS5003;42804;55.762;38.084;2023-08-06T06:41:10;18.75;17.75;14.25
56495;PMS5003;42804;55.762;38.084;2023-08-06T06:43:39;18.00;18.00;14.75
56495;PMS5003;42804;55.762;38.084;2023-08-06T06:46:08;20.50;20.25;16.00
56495;PMS5003;42804;55.762;38.084;2023-08-06T06:48:37;16.50;16.50;13.25
56495;PMS5003;42804;55.762;38.084;2023-08-06T06:51:05;17.00;16.75;12.25
56495;PMS5003;42804;55.762;38.084;2023-08-06T06:53:33;17.00;17.00;14.00
56495;PMS5003;42804;55.762;38.084;2023-08-06T06:56:02;19.50;18.25;14.00
56495;PMS5003;42804;55.762;38.084;2023-08-06T06:58:31;15.25;14.25;11.00
56495;PMS5003;42804;55.762;38.084;2023-08-06T07:01:00;17.25;17.00;13.25
56495;PMS5003;42804;55.762;38.084;2023-08-06T07:03:29;15.00;14.75;12.25
56495;PMS5003;42804;55.762;38.084;2023-08-06T07:05:57;17.50;17.00;13.50
56495;PMS5003;42804;55.762;38.084;2023-08-06T07:08:26;15.25;14.50;11.50
56495;PMS5003;42804;55.762;38.084;2023-08-06T07:10:59;16.75;16.75;15.50
56495;PMS5003;42804;55.762;38.084;2023-08-06T07:13:28;14.75;14.75;11.50
56495;PMS5003;42804;55.762;38.084;2023-08-06T07:15:56;12.75;12.75;9.25
56495;PMS5003;42804;55.762;38.084;2023-08-06T07:18:26;15.25;15.25;12.00
56495;PMS5003;42804;55.762;38.084;2023-08-06T07:20:55;18.25;17.50;13.75
56495;PMS5003;42804;55.762;38.084;2023-08-06T07:23:24;14.50;14.25;11.00
56495;PMS5003;42804;55.762;38.084;2023-08-06T07:25:52;13.75;13.50;10.50
56495;PMS5003;42804;55.762;38.084;2023-08-06T07:28:21;16.25;15.25;12.00
56495;PMS5003;42804;55.762;38.084;2023-08-06T07:30:49;16.00;15.75;12.25
56495;PMS5003;42804;55.762;38.084;2023-08-06T07:33:18;14.50;14.50;12.25
56495;PMS5003;42804;55.762;38.084;2023-08-06T07:35:47;14.00;14.00;11.00
56495;PMS5003;42804;55.762;38.084;2023-08-06T07:38:15;17.00;15.00;11.00
56495;PMS5003;42804;55.762;38.084;2023-08-06T07:40:44;16.00;15.50;11.25
56495;PMS5003;42804;55.762;38.084;2023-08-06T07:43:12;15.00;14.25;12.00
56495;PMS5003;42804;55.762;38.084;2023-08-06T07:45:40;14.00;14.00;11.00
56495;PMS5003;42804;55.762;38.084;2023-08-06T07:48:09;12.50;11.75;8.50
56495;PMS5003;42804;55.762;38.084;2023-08-06T07:50:37;14.00;13.25;10.25
56495;PMS5003;42804;55.762;38.084;2023-08-06T07:53:06;13.50;13.50;10.00
56495;PMS5003;42804;55.762;38.084;2023-08-06T07:55:35;15.00;15.00;10.00
56495;PMS5003;42804;55.762;38.084;2023-08-06T07:58:03;13.50;13.50;10.50
56495;PMS5003;42804;55.762;38.084;2023-08-06T08:00:31;9.25;9.00;5.75
56495;PMS5003;42804;55.762;38.084;2023-08-06T08:03:00;13.25;12.25;9.25
56495;PMS5003;42804;55.762;38.084;2023-08-06T08:05:28;17.25;15.50;11.00
56495;PMS5003;42804;55.762;38.084;2023-08-06T08:07:56;12.00;12.00;9.75
56495;PMS5003;42804;55.762;38.084;2023-08-06T08:10:26;13.00;13.00;10.00
56495;PMS5003;42804;55.762;38.084;2023-08-06T08:12:54;9.50;9.50;7.50
56495;PMS5003;42804;55.762;38.084;2023-08-06T08:15:22;15.00;14.00;11.50
56495;PMS5003;42804;55.762;38.084;2023-08-06T08:17:51;12.50;11.75;8.25
56495;PMS5003;42804;55.762;38.084;2023-08-06T08:20:20;12.00;12.00;9.50
56495;PMS5003;42804;55.762;38.084;2023-08-06T08:22:48;14.00;14.00;10.50
56495;PMS5003;42804;55.762;38.084;2023-08-06T08:25:16;14.50;14.00;10.75
56495;PMS5003;42804;55.762;38.084;2023-08-06T08:27:46;11.75;11.75;9.00
56495;PMS5003;42804;55.762;38.084;2023-08-06T08:30:15;14.25;13.75;10.50
56495;PMS5003;42804;55.762;38.084;2023-08-06T08:32:43;15.50;14.50;11.25
56495;PMS5003;42804;55.762;38.084;2023-08-06T08:35:11;12.25;11.50;9.00
56495;PMS5003;42804;55.762;38.084;2023-08-06T08:37:40;14.75;14.00;10.00
56495;PMS5003;42804;55.762;38.084;2023-08-06T08:40:11;13.75;13.00;11.00
56495;PMS5003;42804;55.762;38.084;2023-08-06T08:42:44;14.00;14.00;11.50
56495;PMS5003;42804;55.762;38.084;2023-08-06T08:45:14;13.25;12.50;9.25
56495;PMS5003;42804;55.762;38.084;2023-08-06T08:47:43;14.25;14.25;10.50
56495;PMS5003;42804;55.762;38.084;2023-08-06T08:50:11;12.25;12.25;10.25
56495;PMS5003;42804;55.762;38.084;2023-08-06T08:52:41;14.25;14.00;11.00
56495;PMS5003;42804;55.762;38.084;2023-08-06T08:55:12;13.25;12.75;9.00
56495;PMS5003;42804;55.762;38.084;2023-08-06T08:57:42;15.00;13.50;10.75
56495;PMS5003;42804;55.762;38.084;2023-08-06T09:00:10;12.00;12.00;9.50
56495;PMS5003;42804;55.762;38.084;2023-08-06T09:02:40;12.50;12.50;10.00
56495;PMS5003;42804;55.762;38.084;2023-08-06T09:05:09;13.75;12.75;12.00
56495;PMS5003;42804;55.762;38.084;2023-08-06T09:07:39;13.25;13.25;10.25
56495;PMS5003;42804;55.762;38.084;2023-08-06T09:10:10;14.00;13.25;10.50
56495;PMS5003;42804;55.762;38.084;2023-08-06T09:12:40;13.75;12.00;9.00
56495;PMS5003;42804;55.762;38.084;2023-08-06T09:15:09;15.50;15.50;11.75
56495;PMS5003;42804;55.762;38.084;2023-08-06T09:17:37;14.25;14.00;11.25
56495;PMS5003;42804;55.762;38.084;2023-08-06T09:20:11;14.00;12.25;10.25
56495;PMS5003;42804;55.762;38.084;2023-08-06T09:22:40;15.00;14.25;11.50
56495;PMS5003;42804;55.762;38.084;2023-08-06T09:25:09;12.75;12.75;9.75
56495;PMS5003;42804;55.762;38.084;2023-08-06T09:27:37;15.00;15.00;12.00
56495;PMS5003;42804;55.762;38.084;2023-08-06T09:30:06;13.00;12.75;10.00
56495;PMS5003;42804;55.762;38.084;2023-08-06T09:32:44;15.75;15.50;10.75
56495;PMS5003;42804;55.762;38.084;2023-08-06T09:35:17;12.25;12.25;9.50
56495;PMS5003;42804;55.762;38.084;2023-08-06T09:37:45;18.25;17.25;13.25
56495;PMS5003;42804;55.762;38.084;2023-08-06T09:40:24;16.75;15.00;12.50
56495;PMS5003;42804;55.762;38.084;2023-08-06T09:42:53;16.00;14.25;11.00
56495;PMS5003;42804;55.762;38.084;2023-08-06T09:45:21;14.00;14.00;10.00
56495;PMS5003;42804;55.762;38.084;2023-08-06T09:47:49;10.00;9.75;8.00
56495;PMS5003;42804;55.762;38.084;2023-08-06T09:50:19;14.50;13.50;11.25
56495;PMS5003;42804;55.762;38.084;2023-08-06T09:52:48;13.50;13.50;11.00
56495;PMS5003;42804;55.762;38.084;2023-08-06T09:55:16;16.00;15.00;11.00
56495;PMS5003;42804;55.762;38.084;2023-08-06T09:57:46;15.25;15.25;12.00
56495;PMS5003;42804;55.762;38.084;2023-08-06T10:00:15;12.00;12.00;9.75
56495;PMS5003;42804;55.762;38.084;2023-08-06T10:02:45;15.50;14.75;10.75
56495;PMS5003;42804;55.762;38.084;2023-08-06T10:05:15;14.25;14.00;10.50
56495;PMS5003;42804;55.762;38.084;2023-08-06T10:07:45;16.25;16.00;12.00
56495;PMS5003;42804;55.762;38.084;2023-08-06T10:10:13;16.00;14.75;11.25
56495;PMS5003;42804;55.762;38.084;2023-08-06T10:12:42;15.50;15.50;11.50
56495;PMS5003;42804;55.762;38.084;2023-08-06T10:15:13;15.25;14.25;11.50
56495;PMS5003;42804;55.762;38.084;2023-08-06T10:17:42;12.75;12.50;9.25
56495;PMS5003;42804;55.762;38.084;2023-08-06T10:20:17;15.00;15.00;11.00
56495;PMS5003;42804;55.762;38.084;2023-08-06T10:22:47;15.75;15.50;11.50
56495;PMS5003;42804;55.762;38.084;2023-08-06T10:25:29;14.75;14.50;11.00
56495;PMS5003;42804;55.762;38.084;2023-08-06T10:28:00;13.50;13.50;11.00
56495;PMS5003;42804;55.762;38.084;2023-08-06T10:30:29;16.75;15.25;10.75
56495;PMS5003;42804;55.762;38.084;2023-08-06T10:33:00;16.50;16.50;12.50
56495;PMS5003;42804;55.762;38.084;2023-08-06T10:35:29;18.00;17.75;12.25
56495;PMS5003;42804;55.762;38.084;2023-08-06T10:38:04;15.00;14.25;11.25
56495;PMS5003;42804;55.762;38.084;2023-08-06T10:40:32;13.25;13.00;10.25
56495;PMS5003;42804;55.762;38.084;2023-08-06T10:43:01;13.75;13.25;10.75
56495;PMS5003;42804;55.762;38.084;2023-08-06T10:45:29;15.50;15.00;11.25
56495;PMS5003;42804;55.762;38.084;2023-08-06T10:47:57;14.25;14.25;10.50
56495;PMS5003;42804;55.762;38.084;2023-08-06T10:50:26;14.75;14.25;10.75
56495;PMS5003;42804;55.762;38.084;2023-08-06T10:52:54;15.25;15.25;12.00
56495;PMS5003;42804;55.762;38.084;2023-08-06T10:55:24;12.25;11.75;9.00
56495;PMS5003;42804;55.762;38.084;2023-08-06T10:57:53;15.25;15.00;12.00
56495;PMS5003;42804;55.762;38.084;2023-08-06T11:00:21;19.00;17.75;13.75
56495;PMS5003;42804;55.762;38.084;2023-08-06T11:02:51;13.75;13.50;10.50
56495;PMS5003;42804;55.762;38.084;2023-08-06T11:05:20;14.50;14.50;11.25
56495;PMS5003;42804;55.762;38.084;2023-08-06T11:07:48;16.50;15.75;11.50
56495;PMS5003;42804;55.762;38.084;2023-08-06T11:10:18;14.75;14.75;11.25
56495;PMS5003;42804;55.762;38.084;2023-08-06T11:12:47;18.75;18.75;14.25
56495;PMS5003;42804;55.762;38.084;2023-08-06T11:15:16;16.00;15.50;11.25
56495;PMS5003;42804;55.762;38.084;2023-08-06T11:17:44;16.00;16.00;11.50
56495;PMS5003;42804;55.762;38.084;2023-08-06T11:20:13;18.00;17.00;13.00
56495;PMS5003;42804;55.762;38.084;2023-08-06T11:22:43;18.00;17.00;13.50
56495;PMS5003;42804;55.762;38.084;2023-08-06T11:25:12;14.00;13.25;8.00
56495;PMS5003;42804;55.762;38.084;2023-08-06T11:27:40;14.75;14.50;11.25
56495;PMS5003;42804;55.762;38.084;2023-08-06T11:30:11;13.50;13.50;9.50
56495;PMS5003;42804;55.762;38.084;2023-08-06T11:32:46;14.00;13.75;11.00
56495;PMS5003;42804;55.762;38.084;2023-08-06T11:35:15;17.50;17.00;13.25
56495;PMS5003;42804;55.762;38.084;2023-08-06T11:37:43;17.50;16.00;13.00
56495;PMS5003;42804;55.762;38.084;2023-08-06T11:40:13;16.00;16.00;12.50
56495;PMS5003;42804;55.762;38.084;2023-08-06T11:42:42;15.75;15.00;11.50
56495;PMS5003;42804;55.762;38.084;2023-08-06T11:45:12;18.00;16.50;12.50
56495;PMS5003;42804;55.762;38.084;2023-08-06T11:47:40;15.00;15.00;12.00
56495;PMS5003;42804;55.762;38.084;2023-08-06T11:50:09;15.00;15.00;11.25
56495;PMS5003;42804;55.762;38.084;2023-08-06T11:52:49;16.50;16.50;13.00
56495;PMS5003;42804;55.762;38.084;2023-08-06T11:55:22;17.25;16.25;12.75
56495;PMS5003;42804;55.762;38.084;2023-08-06T11:57:51;16.50;15.75;13.75
56495;PMS5003;42804;55.762;38.084;2023-08-06T12:00:22;13.50;13.50;11.00
56495;PMS5003;42804;55.762;38.084;2023-08-06T12:02:51;16.75;16.25;11.50
56495;PMS5003;42804;55.762;38.084;2023-08-06T12:05:22;14.00;14.00;10.50
56495;PMS5003;42804;55.762;38.084;2023-08-06T12:07:52;15.75;15.75;11.25
56495;PMS5003;42804;55.762;38.084;2023-08-06T12:10:21;12.00;12.00;10.00
56495;PMS5003;42804;55.762;38.084;2023-08-06T12:12:50;13.00;12.00;9.75
56495;PMS5003;42804;55.762;38.084;2023-08-06T12:15:18;15.75;15.00;12.00
56495;PMS5003;42804;55.762;38.084;2023-08-06T12:17:48;12.25;12.25;8.00
56495;PMS5003;42804;55.762;38.084;2023-08-06T12:20:16;13.25;13.25;9.25
56495;PMS5003;42804;55.762;38.084;2023-08-06T12:22:45;14.00;13.00;11.00
56495;PMS5003;42804;55.762;38.084;2023-08-06T12:25:13;14.25;14.25;11.00
56495;PMS5003;42804;55.762;38.084;2023-08-06T12:27:41;17.00;16.75;13.00
56495;PMS5003;42804;55.762;38.084;2023-08-06T12:30:10;12.00;12.00;9.00
56495;PMS5003;42804;55.762;38.084;2023-08-06T12:32:39;18.25;17.00;13.25
56495;PMS5003;42804;55.762;38.084;2023-08-06T12:35:09;16.00;16.00;11.75
56495;PMS5003;42804;55.762;38.084;2023-08-06T12:37:37;13.75;13.50;11.00
56495;PMS5003;42804;55.762;38.084;2023-08-06T12:40:06;17.00;16.00;12.00
56495;PMS5003;42804;55.762;38.084;2023-08-06T12:42:56;15.50;15.00;12.00
56495;PMS5003;42804;55.762;38.084;2023-08-06T12:45:25;16.25;15.00;11.25
56495;PMS5003;42804;55.762;38.084;2023-08-06T12:47:53;15.00;15.00;11.00
56495;PMS5003;42804;55.762;38.084;2023-08-06T12:50:23;13.75;13.75;11.25
56495;PMS5003;42804;55.762;38.084;2023-08-06T12:52:51;14.25;14.25;10.75
56495;PMS5003;42804;55.762;38.084;2023-08-06T12:55:20;16.50;16.00;11.25
56495;PMS5003;42804;55.762;38.084;2023-08-06T12:57:48;17.25;17.00;13.25
56495;PMS5003;42804;55.762;38.084;2023-08-06T13:00:24;10.50;10.50;7.75
56495;PMS5003;42804;55.762;38.084;2023-08-06T13:02:52;18.00;18.00;13.50
56495;PMS5003;42804;55.762;38.084;2023-08-06T13:05:22;17.00;17.00;12.00
56495;PMS5003;42804;55.762;38.084;2023-08-06T13:07:51;12.50;12.50;10.00
56495;PMS5003;42804;55.762;38.084;2023-08-06T13:10:19;16.75;16.50;13.50
56495;PMS5003;42804;55.762;38.084;2023-08-06T13:12:48;16.00;15.00;12.00
56495;PMS5003;42804;55.762;38.084;2023-08-06T13:15:16;16.00;16.00;12.00
56495;PMS5003;42804;55.762;38.084;2023-08-06T13:17:46;16.25;16.25;14.00
56495;PMS5003;42804;55.762;38.084;2023-08-06T13:20:15;18.00;17.50;13.50
56495;PMS5003;42804;55.762;38.084;2023-08-06T13:22:47;15.00;15.00;12.00
56495;PMS5003;42804;55.762;38.084;2023-08-06T13:25:18;16.00;15.75;13.00
56495;PMS5003;42804;55.762;38.084;2023-08-06T13:27:46;17.50;16.00;11.50
56495;PMS5003;42804;55.762;38.084;2023-08-06T13:30:15;17.25;17.25;14.25
56495;PMS5003;42804;55.762;38.084;2023-08-06T13:32:43;15.25;15.00;12.00
56495;PMS5003;42804;55.762;38.084;2023-08-06T13:35:11;15.25;14.50;11.25
56495;PMS5003;42804;55.762;38.084;2023-08-06T13:37:39;17.00;16.25;13.00
56495;PMS5003;42804;55.762;38.084;2023-08-06T13:40:09;18.25;18.25;14.25
56495;PMS5003;42804;55.762;38.084;2023-08-06T13:42:38;17.00;16.25;13.50
56495;PMS5003;42804;55.762;38.084;2023-08-06T13:45:06;18.00;17.50;14.75